createdAt,value
2019-04-14T00:02:36.223Z,77.79
2019-04-14T00:05:06.418Z,77.82
2019-04-14T00:07:32.571Z,77.80
2019-04-14T00:09:58.755Z,77.09
2019-04-14T00:12:25.175Z,77.63
2019-04-14T00:14:53.416Z,77.37
2019-04-14T00:17:19.773Z,77.63
2019-04-14T00:19:45.992Z,77.57
2019-04-14T00:22:12.402Z,77.95
2019-04-14T00:24:40.256Z,77.77
2019-04-14T00:27:06.934Z,77.31
2019-04-14T00:29:33.238Z,77.67
2019-04-14T00:32:00.637Z,77.85
2019-04-14T00:34:36.146Z,78.26
2019-04-14T00:37:21.064Z,77.89
2019-04-14T00:39:53.230Z,77.59
2019-04-14T00:42:39.379Z,78.23
2019-04-14T00:45:09.267Z,78.33
2019-04-14T00:47:49.750Z,78.43
2019-04-14T00:50:05.885Z,78.47
2019-04-14T00:52:32.162Z,78.72
2019-04-14T00:54:58.679Z,78.54
2019-04-14T00:57:26.849Z,78.31
2019-04-14T00:59:53.156Z,78.54
2019-04-14T01:02:19.234Z,79.01
2019-04-14T01:04:45.431Z,78.91
2019-04-14T01:07:12.962Z,78.47
2019-04-14T01:09:39.171Z,78.62
2019-04-14T01:12:06.059Z,78.55
2019-04-14T01:14:32.299Z,78.94
2019-04-14T01:16:58.497Z,78.44
2019-04-14T01:19:24.627Z,78.53
2019-04-14T01:21:52.508Z,78.20
2019-04-14T01:24:18.881Z,78.64
2019-04-14T01:26:46.287Z,78.40
2019-04-14T01:29:12.556Z,78.44
2019-04-14T01:31:38.669Z,78.52
2019-04-14T01:34:04.858Z,78.61
2019-04-14T01:36:32.031Z,78.36
2019-04-14T01:38:58.220Z,78.55
2019-04-14T01:41:24.506Z,78.71
2019-04-14T01:43:51.644Z,78.39
2019-04-14T01:46:23.289Z,78.76
2019-04-14T01:48:45.920Z,78.42
2019-04-14T01:51:30.953Z,78.61
2019-04-14T01:53:59.607Z,78.63
2019-04-14T01:56:34.127Z,78.94
2019-04-14T01:59:02.252Z,79.16
2019-04-14T02:01:36.746Z,79.03
2019-04-14T02:04:03.214Z,78.77
2019-04-14T02:06:29.309Z,78.70
2019-04-14T02:08:56.737Z,78.89
2019-04-14T02:11:23.083Z,79.15
2019-04-14T02:13:49.172Z,79.03
2019-04-14T02:16:25.994Z,78.86
2019-04-14T02:18:44.794Z,78.88
2019-04-14T02:21:12.729Z,79.18
2019-04-14T02:23:39.114Z,78.90
2019-04-14T02:26:05.305Z,78.67
2019-04-14T02:28:31.534Z,78.54
2019-04-14T02:31:10.237Z,78.72
2019-04-14T02:33:50.349Z,78.64
2019-04-14T02:38:57.337Z,78.56
2019-04-14T02:41:30.052Z,78.24
2019-04-14T02:43:48.218Z,78.80
2019-04-14T02:46:13.881Z,78.25
2019-04-14T02:48:53.333Z,78.16
2019-04-14T02:51:15.930Z,78.03
2019-04-14T02:56:16.555Z,77.95
2019-04-14T03:01:07.575Z,78.34
2019-04-14T03:03:33.989Z,78.29
2019-04-14T03:06:01.545Z,78.21
2019-04-14T03:08:36.365Z,78.21
2019-04-14T03:10:53.699Z,78.40
2019-04-14T03:15:58.735Z,78.33
2019-04-14T03:26:15.610Z,77.80
2019-04-14T03:28:46.330Z,77.55
2019-04-14T03:31:38.960Z,77.55
2019-04-14T03:38:40.285Z,78.14
2019-04-14T03:43:36.775Z,78.21
2019-04-14T03:46:12.122Z,78.38
2019-04-14T03:51:06.772Z,78.23
2019-04-14T03:53:30.507Z,77.85
2019-04-14T03:55:56.646Z,78.56
2019-04-14T03:58:18.890Z,77.99
2019-04-14T04:00:46.563Z,78.49
2019-04-14T04:03:12.881Z,78.17
2019-04-14T04:05:39.190Z,78.00
2019-04-14T04:08:05.376Z,78.06
2019-04-14T04:10:33.579Z,77.98
2019-04-14T04:12:59.770Z,77.57
2019-04-14T04:15:25.907Z,77.64
2019-04-14T04:17:53.943Z,77.88
2019-04-14T04:20:39.123Z,77.84
2019-04-14T04:23:07.503Z,77.90
2019-04-14T04:25:35.477Z,77.78
2019-04-14T04:28:03.781Z,77.30
2019-04-14T04:30:31.888Z,77.26
2019-04-14T04:33:09.384Z,77.18
2019-04-14T04:35:39.317Z,77.54
2019-04-14T04:38:10.167Z,77.62
2019-04-14T04:40:37.494Z,77.56
2019-04-14T04:43:04.108Z,77.61
2019-04-14T04:45:30.470Z,77.76
2019-04-14T04:47:57.709Z,77.57
2019-04-14T04:50:23.990Z,77.71
2019-04-14T04:52:50.277Z,77.46
2019-04-14T04:55:17.638Z,77.21
2019-04-14T04:57:44.001Z,76.98
2019-04-14T05:00:11.394Z,77.75
2019-04-14T05:02:37.893Z,78.01
2019-04-14T05:05:41.417Z,77.66
2019-04-14T05:08:08.662Z,77.70
2019-04-14T05:10:37.156Z,77.63
2019-04-14T05:13:05.335Z,77.81
2019-04-14T05:15:36.169Z,77.99
2019-04-14T05:18:02.798Z,77.53
2019-04-14T05:20:29.247Z,77.46
2019-04-14T05:22:55.342Z,77.36
2019-04-14T05:25:21.684Z,77.35
2019-04-14T05:27:47.851Z,77.56
2019-04-14T05:30:15.335Z,77.81
2019-04-14T05:32:41.563Z,77.50
2019-04-14T05:35:07.767Z,77.57
2019-04-14T05:37:33.890Z,77.45
2019-04-14T05:40:00.004Z,77.41
2019-04-14T05:42:27.477Z,77.46
2019-04-14T05:44:54.340Z,77.33
2019-04-14T05:47:20.450Z,77.16
2019-04-14T05:49:50.076Z,77.01
2019-04-14T05:52:14.926Z,77.02
2019-04-14T05:54:42.547Z,77.01
2019-04-14T05:57:08.856Z,76.59
2019-04-14T05:59:35.333Z,76.48
2019-04-14T06:02:02.600Z,76.29
2019-04-14T06:04:28.868Z,76.30
2019-04-14T06:06:54.979Z,75.66
2019-04-14T06:09:21.072Z,75.55
2019-04-14T06:11:47.304Z,75.69
2019-04-14T06:14:13.508Z,75.85
2019-04-14T06:16:39.761Z,75.83
2019-04-14T06:19:07.082Z,75.72
2019-04-14T06:21:33.473Z,75.61
2019-04-14T06:23:59.599Z,74.82
2019-04-14T06:26:25.896Z,74.81
2019-04-14T06:28:52.116Z,74.84
2019-04-14T06:31:37.019Z,73.43
2019-04-14T06:34:08.018Z,73.65
2019-04-14T06:36:42.028Z,73.22
2019-04-14T06:39:12.752Z,72.55
2019-04-14T06:41:39.045Z,72.24
2019-04-14T06:44:05.139Z,71.80
2019-04-14T06:46:31.266Z,71.42
2019-04-14T06:48:57.384Z,71.20
2019-04-14T06:51:23.513Z,70.95
2019-04-14T06:53:49.621Z,70.59
2019-04-14T06:56:15.821Z,69.37
2019-04-14T06:58:41.999Z,69.00
2019-04-14T07:01:09.181Z,69.66
2019-04-14T07:03:35.285Z,67.68
2019-04-14T07:06:01.522Z,66.45
2019-04-14T07:08:29.846Z,68.01
2019-04-14T07:10:55.732Z,66.88
2019-04-14T07:13:22.026Z,66.18
2019-04-14T07:15:48.452Z,64.65
2019-04-14T07:18:14.558Z,65.08
2019-04-14T07:20:40.679Z,64.99
2019-04-14T07:23:06.983Z,64.16
2019-04-14T07:25:33.514Z,65.02
2019-04-14T07:27:59.843Z,64.63
2019-04-14T07:30:42.899Z,63.74
2019-04-14T07:33:16.688Z,63.44
2019-04-14T07:35:45.942Z,62.97
2019-04-14T07:38:16.914Z,62.79
2019-04-14T07:40:57.244Z,62.33
2019-04-14T07:43:40.732Z,62.60
2019-04-14T07:46:17.613Z,63.39
2019-04-14T07:48:45.747Z,62.76
2019-04-14T07:51:30.727Z,62.30
2019-04-14T07:54:04.767Z,62.15
2019-04-14T07:56:48.102Z,63.21
2019-04-14T07:59:16.107Z,62.73
2019-04-14T08:01:59.233Z,61.55
2019-04-14T08:04:30.565Z,60.33
2019-04-14T08:06:56.952Z,60.83
2019-04-14T08:09:23.410Z,61.20
2019-04-14T08:11:49.521Z,60.37
2019-04-14T08:14:15.968Z,59.62
2019-04-14T08:16:42.363Z,58.56
2019-04-14T08:19:08.561Z,58.36
2019-04-14T08:21:34.921Z,58.93
2019-04-14T08:24:01.430Z,57.36
2019-04-14T08:26:27.781Z,56.23
2019-04-14T08:28:54.081Z,54.75
2019-04-14T08:31:20.421Z,54.67
2019-04-14T08:33:46.521Z,54.50
2019-04-14T08:36:12.815Z,53.98
2019-04-14T08:38:39.161Z,54.84
2019-04-14T08:41:05.400Z,53.49
2019-04-14T08:43:42.621Z,54.42
2019-04-14T08:46:19.852Z,53.98
2019-04-14T08:48:50.864Z,54.23
2019-04-14T08:51:19.007Z,53.69
2019-04-14T08:54:02.119Z,54.34
2019-04-14T08:56:46.667Z,52.98
2019-04-14T08:59:29.837Z,53.09
2019-04-14T09:01:57.824Z,53.03
2019-04-14T09:04:35.021Z,52.41
2019-04-14T09:07:14.989Z,52.22
2019-04-14T09:09:43.176Z,52.62
2019-04-14T09:12:15.737Z,50.80
2019-04-14T09:14:39.791Z,51.80
2019-04-14T09:17:05.912Z,51.78
2019-04-14T09:19:32.125Z,50.63
2019-04-14T09:21:58.407Z,50.83
2019-04-14T09:24:24.645Z,51.45
2019-04-14T09:26:50.965Z,50.56
2019-04-14T09:29:17.327Z,50.63
2019-04-14T09:31:43.849Z,51.41
2019-04-14T09:34:10.216Z,50.58
2019-04-14T09:36:36.398Z,52.49
2019-04-14T09:39:04.943Z,51.03
2019-04-14T09:41:32.157Z,50.41
2019-04-14T09:43:58.345Z,51.32
2019-04-14T09:46:24.675Z,50.88
2019-04-14T09:48:50.781Z,50.21
2019-04-14T09:51:17.070Z,48.83
2019-04-14T09:53:43.289Z,49.93
2019-04-14T09:56:09.377Z,49.90
2019-04-14T09:58:35.530Z,50.08
2019-04-14T10:01:01.845Z,49.48
2019-04-14T10:03:28.070Z,51.04
2019-04-14T10:05:54.205Z,49.83
2019-04-14T10:08:20.432Z,49.80
2019-04-14T10:10:46.778Z,49.86
2019-04-14T10:13:13.069Z,48.76
2019-04-14T10:15:39.196Z,48.86
2019-04-14T10:18:05.409Z,48.82
2019-04-14T10:20:31.866Z,49.02
2019-04-14T10:22:58.499Z,47.98
2019-04-14T10:25:24.632Z,47.71
2019-04-14T10:27:50.758Z,48.37
2019-04-14T10:30:17.069Z,47.22
2019-04-14T10:32:43.297Z,48.53
2019-04-14T10:35:09.514Z,47.47
2019-04-14T10:37:35.836Z,48.66
2019-04-14T10:40:06.071Z,49.41
2019-04-14T10:42:31.728Z,47.44
2019-04-14T10:44:58.249Z,47.01
2019-04-14T10:47:24.439Z,46.30
2019-04-14T10:49:50.737Z,47.84
2019-04-14T10:52:16.909Z,48.32
2019-04-14T10:54:43.177Z,47.98
2019-04-14T10:57:09.393Z,48.17
2019-04-14T10:59:35.618Z,47.36
2019-04-14T11:02:02.044Z,46.75
2019-04-14T11:04:28.371Z,45.89
2019-04-14T11:06:56.389Z,45.90
2019-04-14T11:09:22.645Z,46.78
2019-04-14T11:11:48.801Z,46.87
2019-04-14T11:14:15.140Z,48.39
2019-04-14T11:16:41.497Z,46.04
2019-04-14T11:19:07.699Z,46.57
2019-04-14T11:21:42.433Z,46.19
2019-04-14T11:24:02.430Z,47.48
2019-04-14T11:26:28.765Z,45.99
2019-04-14T11:28:55.001Z,46.94
2019-04-14T11:31:39.606Z,46.22
2019-04-14T11:34:06.534Z,47.19
2019-04-14T11:36:46.734Z,47.08
2019-04-14T11:39:14.862Z,47.38
2019-04-14T11:41:41.336Z,47.88
2019-04-14T11:44:07.975Z,47.59
2019-04-14T11:46:34.303Z,47.95
2019-04-14T11:49:00.542Z,48.24
2019-04-14T11:51:26.862Z,47.38
2019-04-14T11:53:53.117Z,48.09
2019-04-14T11:56:19.396Z,47.68
2019-04-14T11:58:45.660Z,48.35
2019-04-14T12:01:22.729Z,46.58
2019-04-14T12:04:05.896Z,47.30
2019-04-14T12:06:39.701Z,47.35
2019-04-14T12:09:10.492Z,47.88
2019-04-14T12:11:37.200Z,47.55
2019-04-14T12:14:04.299Z,47.94
2019-04-14T12:16:32.355Z,46.59
2019-04-14T12:18:59.580Z,47.34
2019-04-14T12:21:27.308Z,47.49
2019-04-14T12:23:54.442Z,48.51
2019-04-14T12:26:21.161Z,48.55
2019-04-14T12:28:47.855Z,48.33
2019-04-14T12:31:15.243Z,48.01
2019-04-14T12:33:41.728Z,48.21
2019-04-14T12:36:10.566Z,47.58
2019-04-14T12:38:36.801Z,47.11
2019-04-14T12:41:06.149Z,46.33
2019-04-14T12:43:37.018Z,46.95
2019-04-14T12:46:11.189Z,45.96
2019-04-14T12:48:56.180Z,45.21
2019-04-14T12:51:24.339Z,46.04
2019-04-14T12:53:50.620Z,46.96
2019-04-14T12:56:18.875Z,47.09
2019-04-14T12:58:51.068Z,46.84
2019-04-14T13:01:19.183Z,48.63
2019-04-14T13:03:45.501Z,49.30
2019-04-14T13:06:12.831Z,48.69
2019-04-14T13:08:39.007Z,48.79
2019-04-14T13:11:06.038Z,47.78
2019-04-14T13:13:32.449Z,47.43
2019-04-14T13:15:58.762Z,47.89
2019-04-14T13:18:25.056Z,48.51
2019-04-14T13:20:51.286Z,49.20
2019-04-14T13:23:17.506Z,48.95
2019-04-14T13:25:43.634Z,48.57
2019-04-14T13:28:10.053Z,48.94
2019-04-14T13:30:38.472Z,48.56
2019-04-14T13:33:04.713Z,48.31
2019-04-14T13:35:31.023Z,47.88
2019-04-14T13:37:57.269Z,48.37
2019-04-14T13:40:23.683Z,48.34
2019-04-14T13:42:50.068Z,48.88
2019-04-14T13:45:16.353Z,49.17
2019-04-14T13:47:42.536Z,49.64
2019-04-14T13:50:09.147Z,49.83
2019-04-14T13:52:45.974Z,49.81
2019-04-14T13:55:04.370Z,49.93
2019-04-14T13:57:30.780Z,49.12
2019-04-14T13:59:57.207Z,49.84
2019-04-14T14:02:23.580Z,50.66
2019-04-14T14:04:50.075Z,50.13
2019-04-14T14:07:16.663Z,50.86
2019-04-14T14:09:43.076Z,50.18
2019-04-14T14:12:26.514Z,50.94
2019-04-14T14:15:10.268Z,51.25
2019-04-14T14:17:53.440Z,51.09
2019-04-14T14:20:24.189Z,51.20
2019-04-14T14:23:10.742Z,51.65
2019-04-14T14:25:41.795Z,52.24
2019-04-14T14:28:08.168Z,52.65
2019-04-14T14:30:34.805Z,52.14
2019-04-14T14:33:01.139Z,51.93
2019-04-14T14:35:27.377Z,51.98
2019-04-14T14:37:53.503Z,51.39
2019-04-14T14:40:20.068Z,52.31
2019-04-14T14:42:46.472Z,51.76
2019-04-14T14:45:14.934Z,51.78
2019-04-14T14:47:43.093Z,51.88
2019-04-14T14:50:23.196Z,51.84
2019-04-14T14:52:49.609Z,52.17
2019-04-14T14:55:16.020Z,52.77
2019-04-14T14:57:42.590Z,52.67
2019-04-14T15:00:23.412Z,52.63
2019-04-14T15:02:49.638Z,52.59
2019-04-14T15:05:15.812Z,52.92
2019-04-14T15:07:42.144Z,52.72
2019-04-14T15:10:08.477Z,52.83
2019-04-14T15:12:35.792Z,53.58
2019-04-14T15:15:03.633Z,53.13
2019-04-14T15:17:30.015Z,53.38
2019-04-14T15:19:57.288Z,53.11
2019-04-14T15:22:23.504Z,53.60
2019-04-14T15:24:49.740Z,53.87
2019-04-14T15:27:15.975Z,53.86
2019-04-14T15:29:42.211Z,53.99
2019-04-14T15:32:08.559Z,54.50
2019-04-14T15:34:34.891Z,54.56
2019-04-14T15:37:01.266Z,55.38
2019-04-14T15:39:27.811Z,55.62
2019-04-14T15:41:54.261Z,55.95
2019-04-14T15:44:20.886Z,57.15
2019-04-14T15:46:47.407Z,56.75
2019-04-14T15:49:14.838Z,57.13
2019-04-14T15:51:41.094Z,57.55
2019-04-14T15:54:07.415Z,57.67
2019-04-14T15:56:52.226Z,58.03
2019-04-14T15:59:35.724Z,58.71
2019-04-14T16:02:10.032Z,59.72
2019-04-14T16:04:41.117Z,60.69
2019-04-14T16:07:12.983Z,61.56
2019-04-14T16:09:43.824Z,62.35
2019-04-14T16:12:14.861Z,62.90
2019-04-14T16:14:58.323Z,63.26
2019-04-14T16:17:43.358Z,62.18
2019-04-14T16:20:17.556Z,62.91
2019-04-14T16:22:43.875Z,63.71
2019-04-14T16:25:10.310Z,63.63
2019-04-14T16:27:38.549Z,64.47
2019-04-14T16:30:16.467Z,63.98
2019-04-14T16:32:44.690Z,64.39
2019-04-14T16:35:12.940Z,65.06
2019-04-14T16:37:39.241Z,65.40
2019-04-14T16:40:06.093Z,66.14
2019-04-14T16:42:32.312Z,65.94
2019-04-14T16:44:58.532Z,66.32
2019-04-14T16:47:24.919Z,66.72
2019-04-14T16:49:51.482Z,67.24
2019-04-14T16:52:19.751Z,66.91
2019-04-14T16:55:04.619Z,68.43
2019-04-14T16:57:50.876Z,68.37
2019-04-14T17:00:22.388Z,68.79
2019-04-14T17:02:50.164Z,69.06
2019-04-14T17:05:16.531Z,68.71
2019-04-14T17:07:42.769Z,68.60
2019-04-14T17:10:09.703Z,69.38
2019-04-14T17:12:36.045Z,70.02
2019-04-14T17:15:17.797Z,69.41
2019-04-14T17:18:02.432Z,69.36
2019-04-14T17:20:30.641Z,69.96
2019-04-14T17:23:15.481Z,68.50
2019-04-14T17:25:43.560Z,70.04
2019-04-14T17:28:17.691Z,69.30
2019-04-14T17:30:45.980Z,69.67
2019-04-14T17:33:17.229Z,69.23
2019-04-14T17:35:51.400Z,68.70
2019-04-14T17:38:19.584Z,68.83
2019-04-14T17:40:56.661Z,68.92
2019-04-14T17:43:34.948Z,69.34
2019-04-14T17:46:03.154Z,68.54
2019-04-14T17:48:46.329Z,68.63
2019-04-14T17:51:23.605Z,67.51
2019-04-14T17:54:06.993Z,68.31
2019-04-14T17:56:41.056Z,68.56
2019-04-14T17:59:18.391Z,68.53
2019-04-14T18:01:46.650Z,68.85
2019-04-14T18:04:19.573Z,68.67
2019-04-14T18:06:47.859Z,69.65
2019-04-14T18:09:16.217Z,68.65
2019-04-14T18:11:53.494Z,68.82
2019-04-14T18:14:21.610Z,69.56
2019-04-14T18:17:04.790Z,69.70
2019-04-14T18:19:32.844Z,70.53
2019-04-14T18:21:59.195Z,69.72
2019-04-14T18:24:25.428Z,69.74
2019-04-14T18:26:51.790Z,69.30
2019-04-14T18:29:26.383Z,69.18
2019-04-14T18:31:54.489Z,69.09
2019-04-14T18:34:31.789Z,69.77
2019-04-14T18:37:08.776Z,69.50
2019-04-14T18:39:49.871Z,69.50
2019-04-14T18:42:34.625Z,69.16
2019-04-14T18:45:12.030Z,68.90
2019-04-14T18:47:52.442Z,69.48
2019-04-14T18:50:23.701Z,68.67
2019-04-14T18:52:54.645Z,69.41
2019-04-14T18:55:40.382Z,68.58
2019-04-14T18:58:17.650Z,68.36
2019-04-14T19:00:55.050Z,67.48
2019-04-14T19:03:21.279Z,67.27
2019-04-14T19:05:47.597Z,67.04
2019-04-14T19:08:14.146Z,67.55
2019-04-14T19:10:42.590Z,67.98
2019-04-14T19:13:13.567Z,67.88
2019-04-14T19:15:47.674Z,67.76
2019-04-14T19:18:18.788Z,68.20
2019-04-14T19:20:46.820Z,67.68
2019-04-14T19:23:13.039Z,67.72
2019-04-14T19:25:39.244Z,67.74
2019-04-14T19:28:05.463Z,68.07
2019-04-14T19:30:31.735Z,68.33
2019-04-14T19:32:57.974Z,68.02
2019-04-14T19:35:26.801Z,68.07
2019-04-14T19:37:52.375Z,68.14
2019-04-14T19:40:18.709Z,68.45
2019-04-14T19:42:45.014Z,68.12
2019-04-14T19:45:11.330Z,68.29
2019-04-14T19:47:37.662Z,68.40
2019-04-14T19:50:04.571Z,67.92
2019-04-14T19:52:30.960Z,68.67
2019-04-14T19:54:57.236Z,68.80
2019-04-14T19:57:23.347Z,68.38
2019-04-14T19:59:49.601Z,68.54
2019-04-14T20:02:16.026Z,67.92
2019-04-14T20:04:42.370Z,68.41
2019-04-14T20:07:08.481Z,68.31
2019-04-14T20:09:34.755Z,68.58
2019-04-14T20:12:00.975Z,68.21
2019-04-14T20:14:27.370Z,68.43
2019-04-14T20:17:05.947Z,68.46
2019-04-14T20:19:40.275Z,68.50
2019-04-14T20:22:11.294Z,68.37
2019-04-14T20:24:42.396Z,68.59
2019-04-14T20:27:27.332Z,68.17
2019-04-14T20:29:55.564Z,67.87
2019-04-14T20:32:23.675Z,68.29
2019-04-14T20:34:50.137Z,68.35
2019-04-14T20:37:16.343Z,68.26
2019-04-14T20:39:42.536Z,69.03
2019-04-14T20:42:09.035Z,68.64
2019-04-14T20:44:35.256Z,68.84
2019-04-14T20:47:01.692Z,68.97
2019-04-14T20:49:29.044Z,69.08
2019-04-14T20:51:55.365Z,69.08
2019-04-14T20:54:21.598Z,69.34
2019-04-14T20:56:47.814Z,69.32
2019-04-14T20:59:13.905Z,69.41
2019-04-14T21:01:41.938Z,69.46
2019-04-14T21:04:16.085Z,69.38
2019-04-14T21:06:56.343Z,69.52
2019-04-14T21:09:30.480Z,69.22
2019-04-14T21:11:58.695Z,69.40
2019-04-14T21:14:26.721Z,69.32
2019-04-14T21:17:10.100Z,69.36
2019-04-14T21:19:39.199Z,70.13
2019-04-14T21:22:10.122Z,70.39
2019-04-14T21:24:43.939Z,70.26
2019-04-14T21:27:11.958Z,70.03
2019-04-14T21:29:42.865Z,70.53
2019-04-14T21:32:13.852Z,70.13
2019-04-14T21:34:44.816Z,70.14
2019-04-14T21:37:19.965Z,70.23
2019-04-14T21:39:48.098Z,70.34
2019-04-14T21:42:14.827Z,70.39
2019-04-14T21:44:41.150Z,70.40
2019-04-14T21:47:07.350Z,70.38
2019-04-14T21:49:33.682Z,70.30
2019-04-14T21:52:01.921Z,70.49
2019-04-14T21:54:28.212Z,70.85
2019-04-14T21:57:12.794Z,70.96
2019-04-14T21:59:57.679Z,70.68
2019-04-14T22:02:42.790Z,71.36
2019-04-14T22:05:27.600Z,70.91
2019-04-14T22:08:07.944Z,70.92
2019-04-14T22:10:36.104Z,70.87
2019-04-14T22:13:02.496Z,70.87
2019-04-14T22:15:28.807Z,70.58
2019-04-14T22:17:55.126Z,70.55
2019-04-14T22:20:21.437Z,70.83
2019-04-14T22:22:47.750Z,70.47
2019-04-14T22:25:14.076Z,70.84
2019-04-14T22:27:40.304Z,70.82
2019-04-14T22:30:07.337Z,70.71
2019-04-14T22:32:33.446Z,71.22
2019-04-14T22:34:59.671Z,71.33
2019-04-14T22:37:25.783Z,71.21
2019-04-14T22:39:51.876Z,70.74
2019-04-14T22:42:18.202Z,70.78
2019-04-14T22:44:44.496Z,71.24
2019-04-14T22:47:10.611Z,71.14
2019-04-14T22:49:36.796Z,71.17
2019-04-14T22:52:03.432Z,71.10
2019-04-14T22:54:29.529Z,71.28
2019-04-14T22:56:55.771Z,71.53
2019-04-14T22:59:21.982Z,71.80
2019-04-14T23:01:49.987Z,71.87
2019-04-14T23:04:18.090Z,71.80
2019-04-14T23:07:02.947Z,71.90
2019-04-14T23:09:31.073Z,71.40
2019-04-14T23:12:08.310Z,71.97
2019-04-14T23:14:48.458Z,72.28
2019-04-14T23:17:25.746Z,72.83
2019-04-14T23:19:56.876Z,72.91
2019-04-14T23:22:34.161Z,73.08
2019-04-14T23:25:00.475Z,73.24
2019-04-14T23:27:26.593Z,72.67
2019-04-14T23:29:52.840Z,72.94
2019-04-14T23:32:19.031Z,73.21
2019-04-14T23:34:45.141Z,72.70
2019-04-14T23:37:11.448Z,72.98
2019-04-14T23:39:37.589Z,73.51
2019-04-14T23:42:04.001Z,73.71
2019-04-14T23:44:30.080Z,74.07
2019-04-14T23:46:56.375Z,74.36
2019-04-14T23:49:22.682Z,74.43
2019-04-14T23:51:48.972Z,74.46
2019-04-14T23:54:15.076Z,74.26
2019-04-14T23:56:41.291Z,74.04
2019-04-14T23:59:07.526Z,73.97
